Time;durP1;ratioP1;P1;durP2;ratioP2;P2;SDS_P1;SDS_P2;PMS_P1;PMS_P2;Temp;Humidity;BMP_temperature;BMP_pressure;BME280_temperature;BME280_humidity;BME280_pressure;Samples;Min_cycle;Max_cycle;Signal;HPM_P1;HPM_P2
2024/02/07 00:02:12;;;;;;;;;17.00;15.33;;;;;;;;5080880;27;45392;-76
2024/02/07 00:04:38;;;;;;;;;16.67;15.00;;;;;;;;5080539;27;45266;-78
2024/02/07 00:07:03;;;;;;;;;19.67;16.33;;;;;;;;5078914;28;48290;-77
2024/02/07 00:09:28;;;;;;;;;23.33;20.33;;;;;;;;5080763;27;45157;-77
2024/02/07 00:11:53;;;;;;;;;21.00;17.33;;;;;;;;5080625;27;45594;-77
2024/02/07 00:14:18;;;;;;;;;15.00;15.00;;;;;;;;5080575;27;45477;-77
2024/02/07 00:16:44;;;;;;;;;15.00;14.00;;;;;;;;5080622;27;45396;-78
2024/02/07 00:19:09;;;;;;;;;20.67;18.00;;;;;;;;5080235;27;45329;-77
2024/02/07 00:21:34;;;;;;;;;17.67;17.00;;;;;;;;5078990;28;45253;-77
2024/02/07 00:23:59;;;;;;;;;17.67;13.33;;;;;;;;5080346;27;45528;-78
2024/02/07 00:26:25;;;;;;;;;15.67;14.33;;;;;;;;5079440;27;46081;-78
2024/02/07 00:28:50;;;;;;;;;18.67;18.00;;;;;;;;5080119;27;45330;-77
2024/02/07 00:31:15;;;;;;;;;16.67;14.00;;;;;;;;5080304;27;45316;-77
2024/02/07 00:33:40;;;;;;;;;17.67;14.67;;;;;;;;5080093;27;45267;-77
2024/02/07 00:36:06;;;;;;;;;18.67;16.33;;;;;;;;5080142;27;45987;-77
2024/02/07 00:38:31;;;;;;;;;20.00;18.33;;;;;;;;5078831;28;45365;-77
2024/02/07 00:40:56;;;;;;;;;13.67;13.67;;;;;;;;5080458;27;45232;-77
2024/02/07 00:43:21;;;;;;;;;19.00;18.67;;;;;;;;5080128;27;45629;-77
2024/02/07 00:45:47;;;;;;;;;20.67;17.33;;;;;;;;5079978;27;45331;-77
2024/02/07 00:48:12;;;;;;;;;16.67;15.00;;;;;;;;5078702;28;45361;-77
2024/02/07 00:50:37;;;;;;;;;14.00;14.00;;;;;;;;5079714;27;45489;-77
2024/02/07 00:53:03;;;;;;;;;12.00;12.00;;;;;;;;5080006;27;45528;-78
2024/02/07 00:55:29;;;;;;;;;18.00;14.33;;;;;;;;5079887;28;45388;-78
2024/02/07 00:57:55;;;;;;;;;17.00;15.00;;;;;;;;5067328;27;45308;-77
2024/02/07 01:00:23;;;;;;;;;19.33;18.00;;;;;;;;5059679;28;45313;-78
2024/02/07 01:02:48;;;;;;;;;16.33;14.67;;;;;;;;5059332;28;45319;-78
2024/02/07 01:05:14;;;;;;;;;15.00;14.33;;;;;;;;5058562;28;45418;-76
2024/02/07 01:07:39;;;;;;;;;17.00;17.00;;;;;;;;5058991;28;45262;-77
2024/02/07 01:10:04;;;;;;;;;18.33;15.33;;;;;;;;5058926;28;45316;-77
2024/02/07 01:12:30;;;;;;;;;17.33;17.33;;;;;;;;5059145;28;45292;-78
2024/02/07 01:14:55;;;;;;;;;17.00;16.67;;;;;;;;5059157;28;45318;-77
2024/02/07 01:17:20;;;;;;;;;21.00;18.00;;;;;;;;5059222;28;45311;-77
2024/02/07 01:19:47;;;;;;;;;17.33;16.33;;;;;;;;5059269;28;45343;-77
2024/02/07 01:22:12;;;;;;;;;19.67;17.00;;;;;;;;5059069;28;45480;-77
2024/02/07 01:24:37;;;;;;;;;17.00;16.33;;;;;;;;5059112;28;45553;-77
2024/02/07 01:27:04;;;;;;;;;17.67;17.00;;;;;;;;5057793;28;45922;-77
2024/02/07 01:29:29;;;;;;;;;18.67;16.33;;;;;;;;5058938;28;45422;-77
2024/02/07 01:31:54;;;;;;;;;15.00;13.67;;;;;;;;5057722;28;46093;-77
2024/02/07 01:34:19;;;;;;;;;15.00;15.00;;;;;;;;5058800;28;46482;-77
2024/02/07 01:36:45;;;;;;;;;12.67;12.67;;;;;;;;5058789;28;45334;-77
2024/02/07 01:39:10;;;;;;;;;17.00;11.67;;;;;;;;5060920;28;45414;-77
2024/02/07 01:44:19;;;;;;;;;15.00;12.33;;;;;;;;5062068;28;45437;-76
2024/02/07 01:46:45;;;;;;;;;15.00;13.00;;;;;;;;5062322;28;45284;-77
2024/02/07 01:49:10;;;;;;;;;14.00;14.00;;;;;;;;5062536;28;45262;-77
2024/02/07 01:51:35;;;;;;;;;14.00;13.67;;;;;;;;5060576;28;46288;-77
2024/02/07 01:54:00;;;;;;;;;9.67;8.33;;;;;;;;5062389;28;45389;-77
2024/02/07 01:56:26;;;;;;;;;15.33;14.33;;;;;;;;5062490;28;45295;-77
2024/02/07 01:58:51;;;;;;;;;17.33;16.67;;;;;;;;5081434;28;45536;-76
2024/02/07 02:01:17;;;;;;;;;20.00;19.00;;;;;;;;5082640;27;45305;-78
2024/02/07 02:03:42;;;;;;;;;18.00;16.00;;;;;;;;5082331;28;46108;-77
2024/02/07 02:06:07;;;;;;;;;15.67;15.00;;;;;;;;5082453;28;45341;-77
2024/02/07 02:08:33;;;;;;;;;16.33;15.67;;;;;;;;5082674;28;45374;-78
2024/02/07 02:11:04;;;;;;;;;18.33;15.33;;;;;;;;5082639;28;45465;-77
2024/02/07 02:13:29;;;;;;;;;12.00;11.67;;;;;;;;5082621;27;45500;-78
2024/02/07 02:15:55;;;;;;;;;14.67;14.00;;;;;;;;5082354;27;45479;-78
2024/02/07 02:18:20;;;;;;;;;13.00;12.67;;;;;;;;5082440;27;45456;-76
2024/02/07 02:20:45;;;;;;;;;18.67;16.33;;;;;;;;5082138;27;45444;-77
2024/02/07 02:23:10;;;;;;;;;17.33;15.67;;;;;;;;5082298;27;45404;-77
2024/02/07 02:25:36;;;;;;;;;16.00;15.75;;;;;;;;5082273;27;45365;-77
2024/02/07 02:28:21;;;;;;;;;14.00;14.00;;;;;;;;5082570;27;45523;-76
2024/02/07 02:30:52;;;;;;;;;20.00;16.67;;;;;;;;5082012;27;45332;-77
2024/02/07 02:33:19;;;;;;;;;17.67;16.00;;;;;;;;5081839;27;45360;-77
2024/02/07 02:35:46;;;;;;;;;2.00;1.33;;;;;;;;5080496;28;45364;-78
2024/02/07 02:38:13;;;;;;;;;16.00;15.00;;;;;;;;5080688;28;45512;-78
2024/02/07 02:40:38;;;;;;;;;16.00;16.00;;;;;;;;5080669;28;47049;-77
2024/02/07 02:43:03;;;;;;;;;15.67;14.67;;;;;;;;5080486;28;48313;-78
2024/02/07 02:45:28;;;;;;;;;17.00;13.67;;;;;;;;5082082;28;45270;-77
2024/02/07 02:47:54;;;;;;;;;18.33;17.00;;;;;;;;5081435;27;45176;-76
2024/02/07 02:50:21;;;;;;;;;12.67;12.00;;;;;;;;5081649;27;45354;-77
2024/02/07 02:52:46;;;;;;;;;14.00;14.00;;;;;;;;5081462;27;45231;-77
2024/02/07 02:55:11;;;;;;;;;16.33;16.00;;;;;;;;5081840;27;45216;-78
2024/02/07 02:57:37;;;;;;;;;15.33;15.33;;;;;;;;5071770;28;45210;-78
2024/02/07 03:00:06;;;;;;;;;17.67;16.67;;;;;;;;5060095;28;45974;-77
2024/02/07 03:02:32;;;;;;;;;13.33;13.33;;;;;;;;5061487;28;45336;-77
2024/02/07 03:04:58;;;;;;;;;17.67;16.00;;;;;;;;5061310;28;45280;-77
2024/02/07 03:10:07;;;;;;;;;15.00;12.00;;;;;;;;5061115;28;45405;-77
2024/02/07 03:12:32;;;;;;;;;19.00;19.00;;;;;;;;5059806;28;47072;-77
2024/02/07 03:14:57;;;;;;;;;13.50;13.00;;;;;;;;5061302;28;45396;-77
2024/02/07 03:17:23;;;;;;;;;14.00;13.00;;;;;;;;5059962;28;45315;-77
2024/02/07 03:19:48;;;;;;;;;16.67;16.67;;;;;;;;5060867;28;45296;-78
2024/02/07 03:22:13;;;;;;;;;18.33;13.33;;;;;;;;5059521;28;47205;-78
2024/02/07 03:24:41;;;;;;;;;13.33;12.33;;;;;;;;5060936;28;45266;-78
2024/02/07 03:27:07;;;;;;;;;14.67;14.33;;;;;;;;5060775;28;45213;-77
2024/02/07 03:29:32;;;;;;;;;13.00;13.00;;;;;;;;5059298;28;46042;-77
2024/02/07 03:31:58;;;;;;;;;15.67;14.33;;;;;;;;5059396;28;47270;-77
2024/02/07 03:34:23;;;;;;;;;14.00;12.67;;;;;;;;5060790;28;45271;-78
2024/02/07 03:36:48;;;;;;;;;14.00;13.33;;;;;;;;5059430;28;45579;-78
2024/02/07 03:39:13;;;;;;;;;15.67;14.33;;;;;;;;5060870;28;45387;-76
2024/02/07 03:41:41;;;;;;;;;12.33;12.33;;;;;;;;5060751;28;46437;-78
2024/02/07 03:44:09;;;;;;;;;16.67;14.67;;;;;;;;5060791;28;45318;-77
2024/02/07 03:46:34;;;;;;;;;15.33;14.00;;;;;;;;5060594;28;45177;-77
2024/02/07 03:48:59;;;;;;;;;17.67;15.00;;;;;;;;5060564;28;45664;-77
2024/02/07 03:51:28;;;;;;;;;14.67;13.00;;;;;;;;5060159;28;46280;-76
2024/02/07 03:53:53;;;;;;;;;15.67;14.00;;;;;;;;5059096;28;45483;-78
2024/02/07 03:56:18;;;;;;;;;17.33;15.00;;;;;;;;5059224;28;45472;-78
2024/02/07 03:58:44;;;;;;;;;14.33;13.67;;;;;;;;5078453;28;47252;-78
2024/02/07 04:01:12;;;;;;;;;11.67;10.67;;;;;;;;5079364;27;45325;-78
2024/02/07 04:03:38;;;;;;;;;13.67;13.00;;;;;;;;5080734;27;45394;-77
2024/02/07 04:06:04;;;;;;;;;16.67;13.67;;;;;;;;5080674;27;45289;-77
2024/02/07 04:08:30;;;;;;;;;16.67;16.00;;;;;;;;5080597;27;45482;-77
2024/02/07 04:10:55;;;;;;;;;16.67;16.67;;;;;;;;5080463;28;46138;-78
2024/02/07 05:15:58;;;;;;;;;15.33;14.00;;;;;;;;5058818;28;45212;-77
2024/02/07 05:18:23;;;;;;;;;13.33;13.00;;;;;;;;5059169;28;45513;-77
2024/02/07 05:20:48;;;;;;;;;15.67;15.00;;;;;;;;5058677;28;45334;-78
2024/02/07 05:23:14;;;;;;;;;16.00;14.00;;;;;;;;5059119;28;45419;-77
2024/02/07 05:25:39;;;;;;;;;15.00;14.33;;;;;;;;5058642;28;45354;-79
2024/02/07 05:28:05;;;;;;;;;15.00;14.00;;;;;;;;5059107;28;45303;-76
2024/02/07 05:30:30;;;;;;;;;18.33;18.33;;;;;;;;5057857;28;45288;-77
2024/02/07 05:32:55;;;;;;;;;18.00;17.00;;;;;;;;5059168;28;45456;-79
2024/02/07 05:35:21;;;;;;;;;18.67;17.00;;;;;;;;5060059;28;45437;-79
2024/02/07 05:37:48;;;;;;;;;14.33;14.33;;;;;;;;5057926;28;45412;-80
2024/02/07 05:40:14;;;;;;;;;17.67;16.33;;;;;;;;5060217;28;45196;-79
2024/02/07 05:42:39;;;;;;;;;13.67;13.00;;;;;;;;5059328;28;45212;-79
2024/02/07 05:45:04;;;;;;;;;15.33;13.67;;;;;;;;5057819;28;48251;-80
2024/02/07 05:47:30;;;;;;;;;14.67;14.00;;;;;;;;5059233;28;45299;-80
2024/02/07 05:49:56;;;;;;;;;16.00;15.00;;;;;;;;5057858;28;45248;-80
2024/02/07 05:52:23;;;;;;;;;19.33;17.00;;;;;;;;5056599;28;46003;-80
2024/02/07 05:54:49;;;;;;;;;15.33;13.00;;;;;;;;5058771;28;45398;-79
2024/02/07 05:57:15;;;;;;;;;13.00;13.00;;;;;;;;5057751;28;45603;-79
2024/02/07 05:59:40;;;;;;;;;17.33;17.00;;;;;;;;5058973;28;45334;-79
2024/02/07 06:02:05;;;;;;;;;14.50;14.50;;;;;;;;5057460;28;47232;-78
2024/02/07 06:04:30;;;;;;;;;14.00;14.00;;;;;;;;5056853;28;47366;-79
2024/02/07 06:06:56;;;;;;;;;17.67;16.67;;;;;;;;5058206;28;45240;-78
2024/02/07 06:09:21;;;;;;;;;15.00;13.67;;;;;;;;5056870;28;45334;-76
2024/02/07 06:11:46;;;;;;;;;15.33;15.00;;;;;;;;5057302;28;45989;-77
2024/02/07 06:14:12;;;;;;;;;15.00;14.00;;;;;;;;5057325;28;47620;-77
2024/02/07 06:16:38;;;;;;;;;14.67;14.67;;;;;;;;5057215;28;45649;-78
2024/02/07 06:19:03;;;;;;;;;13.00;13.00;;;;;;;;5058741;28;45452;-78
2024/02/07 06:21:29;;;;;;;;;18.33;12.33;;;;;;;;5058431;28;45398;-79
2024/02/07 06:23:54;;;;;;;;;16.33;15.00;;;;;;;;5058664;28;48163;-80
2024/02/07 06:26:19;;;;;;;;;17.33;14.67;;;;;;;;5061761;28;45299;-77
2024/02/07 06:28:45;;;;;;;;;16.67;13.67;;;;;;;;5061754;28;45269;-79
2024/02/07 06:31:10;;;;;;;;;12.33;10.33;;;;;;;;5060090;28;47426;-79
2024/02/07 06:33:35;;;;;;;;;18.33;15.00;;;;;;;;5061190;28;45390;-77
2024/02/07 06:36:00;;;;;;;;;16.67;14.33;;;;;;;;5059609;28;45418;-78
2024/02/07 06:38:26;;;;;;;;;16.67;14.33;;;;;;;;5061210;28;45347;-78
2024/02/07 06:40:51;;;;;;;;;16.00;15.33;;;;;;;;5060848;28;45587;-77
2024/02/07 06:43:17;;;;;;;;;19.33;18.33;;;;;;;;5060296;28;45464;-78
2024/02/07 06:45:42;;;;;;;;;17.33;16.67;;;;;;;;5059565;28;45217;-77
2024/02/07 06:48:07;;;;;;;;;21.33;16.67;;;;;;;;5060936;28;45522;-78
2024/02/07 06:50:32;;;;;;;;;18.67;18.33;;;;;;;;5059298;28;45978;-78
2024/02/07 06:52:58;;;;;;;;;15.00;15.00;;;;;;;;5060228;28;45422;-78
2024/02/07 06:55:23;;;;;;;;;13.67;13.67;;;;;;;;5060181;28;45687;-77
2024/02/07 06:57:49;;;;;;;;;21.67;18.00;;;;;;;;5059061;28;45485;-77
2024/02/07 07:00:14;;;;;;;;;16.67;15.67;;;;;;;;5059299;28;46359;-77
2024/02/07 07:02:39;;;;;;;;;18.67;17.33;;;;;;;;5060366;28;45248;-76
2024/02/07 07:05:04;;;;;;;;;15.67;14.00;;;;;;;;5060756;28;45433;-77
2024/02/07 07:07:30;;;;;;;;;12.67;12.33;;;;;;;;5059902;28;45349;-77
2024/02/07 07:09:55;;;;;;;;;18.67;14.00;;;;;;;;5059209;28;47393;-76
2024/02/07 07:12:23;;;;;;;;;16.67;12.33;;;;;;;;5061075;28;45463;-76
2024/02/07 07:14:48;;;;;;;;;14.33;14.33;;;;;;;;5059702;28;45586;-77
2024/02/07 07:17:13;;;;;;;;;17.67;15.67;;;;;;;;5061255;28;45316;-76
2024/02/07 07:19:39;;;;;;;;;15.67;15.33;;;;;;;;5060303;28;45222;-76
2024/02/07 07:22:04;;;;;;;;;14.00;14.00;;;;;;;;5058947;28;48206;-77
2024/02/07 07:24:30;;;;;;;;;15.00;15.00;;;;;;;;5059481;28;46018;-77
2024/02/07 07:26:55;;;;;;;;;19.00;18.00;;;;;;;;5058532;28;45406;-77
2024/02/07 07:29:23;;;;;;;;;21.00;18.00;;;;;;;;5059759;28;45211;-77
2024/02/07 07:31:48;;;;;;;;;19.33;18.00;;;;;;;;5058387;28;47390;-77
2024/02/07 07:34:13;;;;;;;;;23.67;21.00;;;;;;;;5059398;28;45322;-77
2024/02/07 07:36:38;;;;;;;;;20.67;20.33;;;;;;;;5058602;28;45229;-77
2024/02/07 07:39:03;;;;;;;;;19.33;19.33;;;;;;;;5060010;28;45449;-77
2024/02/07 07:41:29;;;;;;;;;14.33;13.67;;;;;;;;5059952;28;46055;-77
2024/02/07 07:43:57;;;;;;;;;17.67;15.33;;;;;;;;5059987;28;45400;-77
2024/02/07 07:46:22;;;;;;;;;10.33;10.33;;;;;;;;5060152;28;45491;-76
2024/02/07 07:48:47;;;;;;;;;18.00;15.33;;;;;;;;5058259;28;45967;-76
2024/02/07 07:51:15;;;;;;;;;17.00;15.67;;;;;;;;5059473;28;45520;-77
2024/02/07 07:53:40;;;;;;;;;15.33;14.67;;;;;;;;5059729;28;45417;-77
2024/02/07 07:56:05;;;;;;;;;17.67;16.00;;;;;;;;5059598;28;45468;-77
2024/02/07 07:58:37;;;;;;;;;18.33;14.00;;;;;;;;5059799;28;45604;-77
2024/02/07 08:01:02;;;;;;;;;16.00;14.00;;;;;;;;5059206;28;45374;-77
2024/02/07 08:03:28;;;;;;;;;17.00;16.33;;;;;;;;5057811;28;45286;-77
2024/02/07 08:05:53;;;;;;;;;19.33;16.00;;;;;;;;5059540;28;45508;-78
2024/02/07 08:08:18;;;;;;;;;16.67;14.33;;;;;;;;5059614;28;45603;-77
2024/02/07 08:10:46;;;;;;;;;15.00;14.67;;;;;;;;5059417;28;45558;-77
2024/02/07 08:13:11;;;;;;;;;16.67;15.00;;;;;;;;5059168;28;45262;-77
2024/02/07 08:15:36;;;;;;;;;17.00;15.67;;;;;;;;5059583;28;45227;-76
2024/02/07 08:18:02;;;;;;;;;19.00;17.00;;;;;;;;5058628;28;46227;-77
2024/02/07 08:20:27;;;;;;;;;20.00;18.00;;;;;;;;5058530;28;47351;-76
2024/02/07 08:22:52;;;;;;;;;19.67;17.67;;;;;;;;5059899;28;45228;-75
2024/02/07 08:25:17;;;;;;;;;18.67;16.00;;;;;;;;5059727;28;45209;-76
2024/02/07 08:27:42;;;;;;;;;18.00;16.33;;;;;;;;5059019;28;45278;-76
2024/02/07 08:30:08;;;;;;;;;16.67;16.00;;;;;;;;5060076;28;45287;-76
2024/02/07 08:32:33;;;;;;;;;15.00;14.00;;;;;;;;5059217;28;45268;-76
2024/02/07 08:34:59;;;;;;;;;18.00;17.00;;;;;;;;5058616;28;45418;-76
2024/02/07 08:37:26;;;;;;;;;12.33;11.67;;;;;;;;5059073;28;45497;-76
2024/02/07 08:39:51;;;;;;;;;15.33;13.67;;;;;;;;5056681;28;47150;-77
2024/02/07 08:42:16;;;;;;;;;14.33;14.33;;;;;;;;5057251;28;45686;-78
2024/02/07 08:44:42;;;;;;;;;14.33;14.33;;;;;;;;5057747;28;46561;-77
2024/02/07 08:47:08;;;;;;;;;14.33;13.67;;;;;;;;5059292;28;45407;-78
2024/02/07 08:49:33;;;;;;;;;13.33;13.33;;;;;;;;5057779;28;47235;-77
2024/02/07 08:51:58;;;;;;;;;17.33;17.33;;;;;;;;5058016;28;45402;-77
2024/02/07 08:54:23;;;;;;;;;16.00;14.67;;;;;;;;5060333;28;45538;-78
2024/02/07 08:56:48;;;;;;;;;15.00;13.00;;;;;;;;5058845;28;45450;-76
2024/02/07 08:59:14;;;;;;;;;17.00;15.67;;;;;;;;5058650;28;46943;-77
2024/02/07 09:01:39;;;;;;;;;16.67;16.33;;;;;;;;5058487;28;45328;-78
2024/02/07 09:04:04;;;;;;;;;18.00;17.67;;;;;;;;5060087;28;45532;-77
2024/02/07 09:06:29;;;;;;;;;17.33;16.33;;;;;;;;5059306;28;45423;-78
2024/02/07 09:08:54;;;;;;;;;15.00;14.67;;;;;;;;5057846;28;47452;-78
2024/02/07 09:11:22;;;;;;;;;21.00;20.33;;;;;;;;5059380;28;45492;-78
2024/02/07 09:13:48;;;;;;;;;14.00;14.00;;;;;;;;5059415;28;45423;-77
2024/02/07 09:16:13;;;;;;;;;20.33;19.67;;;;;;;;5058823;28;45487;-77
2024/02/07 09:18:38;;;;;;;;;15.67;15.67;;;;;;;;5059233;28;45265;-77
2024/02/07 09:21:04;;;;;;;;;22.33;18.67;;;;;;;;5057668;28;45456;-77
2024/02/07 09:23:30;;;;;;;;;14.67;14.67;;;;;;;;5059506;28;45342;-77
2024/02/07 09:25:55;;;;;;;;;16.00;15.00;;;;;;;;5058654;28;45511;-76
2024/02/07 09:28:21;;;;;;;;;17.33;15.67;;;;;;;;5057747;28;45584;-77
2024/02/07 09:30:46;;;;;;;;;19.33;17.33;;;;;;;;5058791;28;45433;-76
2024/02/07 09:33:11;;;;;;;;;20.00;18.00;;;;;;;;5060218;28;45319;-76
2024/02/07 09:35:36;;;;;;;;;20.00;17.00;;;;;;;;5060387;28;45360;-76
2024/02/07 09:38:01;;;;;;;;;17.00;16.33;;;;;;;;5058256;28;47025;-77
2024/02/07 09:40:27;;;;;;;;;19.67;17.33;;;;;;;;5057386;28;45506;-76
2024/02/07 09:42:52;;;;;;;;;19.00;18.00;;;;;;;;5059940;28;45323;-77
2024/02/07 09:45:18;;;;;;;;;14.67;11.00;;;;;;;;5058300;28;45405;-76
2024/02/07 09:48:02;;;;;;;;;19.00;18.33;;;;;;;;5057887;28;46439;-77
2024/02/07 09:50:28;;;;;;;;;17.33;16.67;;;;;;;;5058454;28;45441;-76
2024/02/07 09:52:54;;;;;;;;;18.67;18.67;;;;;;;;5058380;28;45518;-77
2024/02/07 09:55:20;;;;;;;;;20.00;18.00;;;;;;;;5055907;28;46323;-78
2024/02/07 09:57:47;;;;;;;;;18.00;14.00;;;;;;;;5064841;28;46997;-79
2024/02/07 10:00:12;;;;;;;;;19.67;17.33;;;;;;;;5044686;28;45427;-76
2024/02/07 10:02:41;;;;;;;;;21.67;18.00;;;;;;;;5065393;28;45662;-77
2024/02/07 10:05:10;;;;;;;;;21.00;17.00;;;;;;;;5063466;28;45403;-77
2024/02/07 10:07:36;;;;;;;;;18.00;14.67;;;;;;;;5061531;28;45359;-75
2024/02/07 10:10:01;;;;;;;;;21.33;19.00;;;;;;;;5061908;28;45263;-76
2024/02/07 10:12:27;;;;;;;;;19.33;17.33;;;;;;;;5059318;28;45414;-76
2024/02/07 10:14:52;;;;;;;;;17.00;16.33;;;;;;;;5059588;28;46016;-77
2024/02/07 10:17:17;;;;;;;;;18.00;18.00;;;;;;;;5059786;28;45348;-76
2024/02/07 10:19:42;;;;;;;;;20.00;18.00;;;;;;;;5060355;28;46195;-77
2024/02/07 10:22:17;;;;;;;;;22.67;18.00;;;;;;;;5060350;28;45335;-77
2024/02/07 10:24:44;;;;;;;;;18.33;16.00;;;;;;;;5053863;28;47094;-76
2024/02/07 10:27:15;;;;;;;;;17.00;16.67;;;;;;;;5051627;28;46527;-77
2024/02/07 10:29:40;;;;;;;;;20.67;18.00;;;;;;;;5060324;28;45274;-77
2024/02/07 10:32:05;;;;;;;;;15.33;14.67;;;;;;;;5060798;28;45646;-76
2024/02/07 10:34:33;;;;;;;;;17.00;15.00;;;;;;;;5059220;28;47306;-76
2024/02/07 10:36:59;;;;;;;;;18.67;17.00;;;;;;;;5060038;28;45292;-76
2024/02/07 10:39:24;;;;;;;;;17.33;15.33;;;;;;;;5060067;28;45386;-77
2024/02/07 10:41:49;;;;;;;;;15.33;14.00;;;;;;;;5060855;28;45438;-77
2024/02/07 10:44:15;;;;;;;;;17.00;16.00;;;;;;;;5059931;28;45477;-76
2024/02/07 10:46:41;;;;;;;;;18.67;16.00;;;;;;;;5059116;28;48225;-78
2024/02/07 10:49:09;;;;;;;;;20.67;19.67;;;;;;;;5062109;28;45267;-77
2024/02/07 10:51:35;;;;;;;;;21.00;20.00;;;;;;;;5059598;28;45299;-77
2024/02/07 10:54:04;;;;;;;;;19.33;19.00;;;;;;;;5059835;28;45421;-79
2024/02/07 10:56:34;;;;;;;;;16.00;16.00;;;;;;;;5060665;28;46514;-78
2024/02/07 10:58:59;;;;;;;;;19.00;19.00;;;;;;;;5061247;27;45435;-78
2024/02/07 11:01:24;;;;;;;;;19.67;17.67;;;;;;;;5060343;28;45568;-78
2024/02/07 11:03:50;;;;;;;;;17.33;17.00;;;;;;;;5059560;28;45217;-77
2024/02/07 11:06:15;;;;;;;;;17.33;15.67;;;;;;;;5058105;28;46291;-78
2024/02/07 11:08:41;;;;;;;;;17.33;16.00;;;;;;;;5060382;28;45205;-77
2024/02/07 11:11:07;;;;;;;;;18.67;17.33;;;;;;;;5058787;28;45233;-79
2024/02/07 11:13:32;;;;;;;;;14.33;13.67;;;;;;;;5060686;28;45263;-78
2024/02/07 11:15:58;;;;;;;;;19.67;18.00;;;;;;;;5060749;28;46495;-78
2024/02/07 11:18:23;;;;;;;;;15.67;15.33;;;;;;;;5059706;28;45358;-79
2024/02/07 11:20:49;;;;;;;;;16.00;14.00;;;;;;;;5061332;28;45346;-78
2024/02/07 11:23:17;;;;;;;;;16.67;16.00;;;;;;;;5061879;28;45355;-80
2024/02/07 11:25:44;;;;;;;;;18.00;17.33;;;;;;;;5061039;28;46242;-78
2024/02/07 11:28:10;;;;;;;;;16.33;16.33;;;;;;;;5058815;28;45323;-78
2024/02/07 11:30:35;;;;;;;;;18.00;16.33;;;;;;;;5061328;28;45549;-79
2024/02/07 11:33:01;;;;;;;;;16.33;15.33;;;;;;;;5061982;28;46266;-77
2024/02/07 11:35:30;;;;;;;;;16.67;15.33;;;;;;;;5057325;28;45508;-78
2024/02/07 11:38:00;;;;;;;;;18.00;17.00;;;;;;;;5051671;28;45488;-77
2024/02/07 11:40:26;;;;;;;;;17.33;15.33;;;;;;;;5059421;28;45395;-76
2024/02/07 11:42:58;;;;;;;;;18.67;16.33;;;;;;;;5062015;28;45517;-79
2024/02/07 11:45:24;;;;;;;;;18.00;16.67;;;;;;;;5071899;28;45476;-79
2024/02/07 11:47:51;;;;;;;;;14.67;14.00;;;;;;;;5084161;28;45711;-78
2024/02/07 11:50:16;;;;;;;;;13.00;12.67;;;;;;;;5060892;28;45525;-78
2024/02/07 11:52:49;;;;;;;;;16.00;16.00;;;;;;;;5063055;28;45998;-78
2024/02/07 11:55:15;;;;;;;;;16.67;16.00;;;;;;;;5063425;28;45551;-77
2024/02/07 11:57:45;;;;;;;;;15.00;13.33;;;;;;;;5063171;28;45283;-75
2024/02/07 12:00:17;;;;;;;;;15.00;14.00;;;;;;;;5061249;28;45473;-76
2024/02/07 12:02:46;;;;;;;;;11.67;11.00;;;;;;;;5060591;28;45442;-76
2024/02/07 12:05:13;;;;;;;;;15.67;14.33;;;;;;;;5058581;28;46218;-76
2024/02/07 12:07:40;;;;;;;;;15.00;12.67;;;;;;;;5056361;28;45658;-75
2024/02/07 12:10:07;;;;;;;;;14.33;14.33;;;;;;;;5058321;28;45400;-75
2024/02/07 12:12:32;;;;;;;;;14.00;12.33;;;;;;;;5059013;28;45316;-76
2024/02/07 12:14:57;;;;;;;;;15.33;12.67;;;;;;;;5057951;28;47180;-76
2024/02/07 12:17:22;;;;;;;;;11.33;11.00;;;;;;;;5060963;28;45225;-76
2024/02/07 12:19:48;;;;;;;;;14.00;13.00;;;;;;;;5061276;28;45255;-75
2024/02/07 12:22:14;;;;;;;;;18.67;15.67;;;;;;;;5057727;28;45373;-77
2024/02/07 12:24:41;;;;;;;;;14.33;13.67;;;;;;;;5055993;28;46413;-76
2024/02/07 12:27:11;;;;;;;;;16.33;15.00;;;;;;;;5057610;28;45469;-75
2024/02/07 12:29:36;;;;;;;;;13.33;11.67;;;;;;;;5058300;28;45417;-76
2024/02/07 12:32:01;;;;;;;;;10.00;10.00;;;;;;;;5057931;28;45350;-75
2024/02/07 12:34:27;;;;;;;;;11.00;8.33;;;;;;;;5056428;28;48295;-75
2024/02/07 12:36:53;;;;;;;;;10.00;10.00;;;;;;;;5057971;28;45316;-76
2024/02/07 12:39:19;;;;;;;;;12.00;10.67;;;;;;;;5057724;28;45460;-76
2024/02/07 12:41:45;;;;;;;;;10.33;10.00;;;;;;;;5057245;28;46044;-76
2024/02/07 12:44:10;;;;;;;;;11.33;11.33;;;;;;;;5057516;28;47598;-77
2024/02/07 12:46:35;;;;;;;;;9.00;9.00;;;;;;;;5059017;28;45386;-76
2024/02/07 12:49:00;;;;;;;;;13.00;11.67;;;;;;;;5060580;28;45623;-76
2024/02/07 12:51:26;;;;;;;;;6.33;5.67;;;;;;;;5057178;28;45641;-76
2024/02/07 12:53:51;;;;;;;;;10.67;10.33;;;;;;;;5057450;28;46346;-76
2024/02/07 12:56:18;;;;;;;;;10.33;9.33;;;;;;;;5058031;28;45485;-76
2024/02/07 12:58:43;;;;;;;;;12.33;10.67;;;;;;;;5060863;28;45703;-76
2024/02/07 13:01:08;;;;;;;;;14.00;14.00;;;;;;;;5051823;28;45437;-75
2024/02/07 13:03:34;;;;;;;;;10.33;10.33;;;;;;;;5049385;28;46512;-75
2024/02/07 13:05:59;;;;;;;;;14.33;12.33;;;;;;;;5057627;28;45247;-76
2024/02/07 13:08:24;;;;;;;;;10.33;10.33;;;;;;;;5057642;28;45287;-75
2024/02/07 13:10:50;;;;;;;;;12.33;12.00;;;;;;;;5057758;28;45522;-76
2024/02/07 13:13:15;;;;;;;;;8.67;8.00;;;;;;;;5056458;28;46282;-77
2024/02/07 13:15:40;;;;;;;;;12.00;12.00;;;;;;;;5058209;28;45213;-75
2024/02/07 13:18:05;;;;;;;;;10.33;9.00;;;;;;;;5057450;28;45358;-76
2024/02/07 13:20:30;;;;;;;;;10.67;7.33;;;;;;;;5057801;28;45559;-76
2024/02/07 13:22:56;;;;;;;;;9.33;9.33;;;;;;;;5055546;28;48375;-77
2024/02/07 13:25:22;;;;;;;;;8.50;8.50;;;;;;;;5056422;28;45334;-76
2024/02/07 13:27:47;;;;;;;;;11.67;8.67;;;;;;;;5058523;28;45260;-76
2024/02/07 13:30:12;;;;;;;;;8.33;8.33;;;;;;;;5058524;28;45499;-76
2024/02/07 13:32:38;;;;;;;;;11.00;11.00;;;;;;;;5059126;28;45926;-77
2024/02/07 13:35:03;;;;;;;;;7.67;7.67;;;;;;;;5062081;28;45341;-74
2024/02/07 13:37:28;;;;;;;;;10.33;9.33;;;;;;;;5062532;28;45311;-75
2024/02/07 13:39:54;;;;;;;;;8.33;7.33;;;;;;;;5061846;28;45420;-75
2024/02/07 13:42:20;;;;;;;;;9.00;9.00;;;;;;;;5059801;28;47260;-75
2024/02/07 13:44:45;;;;;;;;;9.00;8.00;;;;;;;;5060966;28;45321;-76
2024/02/07 13:47:10;;;;;;;;;8.00;6.67;;;;;;;;5062646;28;45288;-75
2024/02/07 13:49:35;;;;;;;;;7.00;6.67;;;;;;;;5062107;28;45197;-75
2024/02/07 13:52:02;;;;;;;;;11.00;9.33;;;;;;;;5061414;28;46355;-75
2024/02/07 13:54:27;;;;;;;;;7.00;6.00;;;;;;;;5061479;28;45495;-76
2024/02/07 13:56:53;;;;;;;;;8.33;8.33;;;;;;;;5063889;28;45270;-75
2024/02/07 13:59:18;;;;;;;;;9.33;9.33;;;;;;;;5068059;28;45310;-78
2024/02/07 14:01:43;;;;;;;;;7.00;7.00;;;;;;;;5068083;28;47054;-79
2024/02/07 14:04:08;;;;;;;;;7.33;7.33;;;;;;;;5072014;28;45382;-78
2024/02/07 14:06:34;;;;;;;;;8.67;8.00;;;;;;;;5060999;28;45283;-79
2024/02/07 14:08:59;;;;;;;;;7.33;7.33;;;;;;;;5062298;28;45468;-79
2024/02/07 14:11:24;;;;;;;;;9.33;7.67;;;;;;;;5061771;28;45583;-79
2024/02/07 14:13:50;;;;;;;;;8.00;8.00;;;;;;;;5060922;28;45319;-79
2024/02/07 14:16:16;;;;;;;;;9.00;9.00;;;;;;;;5060759;28;45261;-78
2024/02/07 14:18:41;;;;;;;;;8.33;8.33;;;;;;;;5060201;28;46298;-79
2024/02/07 14:21:06;;;;;;;;;9.33;9.00;;;;;;;;5061413;28;45508;-79
2024/02/07 14:23:31;;;;;;;;;12.33;12.33;;;;;;;;5062021;28;45339;-79
2024/02/07 14:25:57;;;;;;;;;10.33;10.33;;;;;;;;5062033;28;45354;-78
2024/02/07 14:28:22;;;;;;;;;10.67;10.67;;;;;;;;5061932;28;45382;-79
2024/02/07 14:30:47;;;;;;;;;9.33;8.00;;;;;;;;5061405;28;45423;-79
2024/02/07 14:33:13;;;;;;;;;8.67;8.67;;;;;;;;5061557;28;45383;-77
2024/02/07 14:35:38;;;;;;;;;10.33;8.33;;;;;;;;5062009;28;45480;-79
2024/02/07 14:38:03;;;;;;;;;9.67;9.00;;;;;;;;5061942;28;45319;-79
2024/02/07 14:40:29;;;;;;;;;10.67;10.67;;;;;;;;5061242;28;46393;-79
2024/02/07 14:42:54;;;;;;;;;7.33;7.33;;;;;;;;5063321;28;45540;-79
2024/02/07 14:45:19;;;;;;;;;9.00;8.00;;;;;;;;5066772;28;45708;-79
2024/02/07 14:47:45;;;;;;;;;10.00;10.00;;;;;;;;5060171;28;46048;-79
2024/02/07 14:50:10;;;;;;;;;7.33;7.33;;;;;;;;5059478;28;47480;-79
2024/02/07 14:52:35;;;;;;;;;8.67;8.67;;;;;;;;5061176;28;45438;-79
2024/02/07 14:55:00;;;;;;;;;9.33;8.00;;;;;;;;5054364;28;45445;-79
2024/02/07 14:57:26;;;;;;;;;7.33;7.33;;;;;;;;5060911;28;45477;-79
2024/02/07 14:59:51;;;;;;;;;8.33;7.33;;;;;;;;5061841;28;47193;-81
2024/02/07 15:02:16;;;;;;;;;10.67;9.00;;;;;;;;5061469;28;46597;-81
2024/02/07 15:04:42;;;;;;;;;9.00;8.00;;;;;;;;5061495;28;45466;-80
2024/02/07 15:07:07;;;;;;;;;5.67;5.67;;;;;;;;5059536;28;46885;-79
2024/02/07 15:09:32;;;;;;;;;7.67;7.67;;;;;;;;5059411;28;47072;-79
2024/02/07 15:11:57;;;;;;;;;7.67;7.00;;;;;;;;5059303;28;45479;-78
2024/02/07 15:14:22;;;;;;;;;9.00;7.33;;;;;;;;5059145;28;45565;-79
2024/02/07 15:16:47;;;;;;;;;8.00;7.00;;;;;;;;5058135;28;45647;-78
2024/02/07 15:19:13;;;;;;;;;9.67;6.67;;;;;;;;5058347;28;45331;-79
2024/02/07 15:21:38;;;;;;;;;9.00;8.67;;;;;;;;5057051;28;45697;-79